^^

..:: Storico WU ::..




Lo storico viene creato da WUnderground con i dati che la stazione Meteomincio invia al loro server. L' aggiornamento viene fatto ogni 5 minuti circa, tuttavia possono esserci intervalli pi¨ ampi a causa di errori, interruzioni di servizio o problemi nell' invio tramite FTP.


Storico stazione MeteoMincio
Giorno Sommario per Aprile 22, 2022 Unità:  Inglese    Metrico   Entrambi
Giorno Settimana Mese Anno
  Max: Min: Media:
Temperatura: 58.6 °F 48.4 °F 52.5 °F
Dew Point: 53.1 °F 44.2 °F 49.5 °F
Umidità: 95% 79% 90%
Velocità vento: 10.9mph 0mph 4.1mph
Raffica: 22mph - -
Direzione- - SW
Pressione: 29.7 in 29.5 in -
Precipitazioni: 0.29 in    
 
 
Tabulato Dati per Aprile 22, 2022
Ora Temperatura Dew Point Pressione Direzione Velocità vento Raffica Umidità Intensità pioggia (oraria) Info solare Situazione
00:04 50.5 °F 44.2 °F 29.7 in East 8.6 mph 15 mph 79% 0.01 in 0 W/m2
00:09 50.4 °F 44.2 °F 29.7 in East 7.6 mph 15 mph 79.5% 0.01 in 0 W/m2
00:14 50.2 °F 44.4 °F 29.7 in East 7.5 mph 15 mph 80.4% 0.01 in 0 W/m2
00:19 50 °F 44.4 °F 29.7 in East 10.2 mph 15 mph 81.2% 0.01 in 0 W/m2
00:24 49.8 °F 44.6 °F 29.7 in East 8.4 mph 18.4 mph 82.1% 0.01 in 0 W/m2
00:29 49.6 °F 44.6 °F 29.7 in East 10.4 mph 18.4 mph 83% 0.01 in 0 W/m2
00:34 49.5 °F 44.8 °F 29.7 in East 9.5 mph 18 mph 83.4% 0.01 in 0 W/m2
00:39 49.3 °F 45 °F 29.7 in East 8.5 mph 15 mph 84.8% 0.02 in 0 W/m2
00:44 49.1 °F 45 °F 29.7 in East 9.4 mph 19 mph 85.7% 0.02 in 0 W/m2
00:49 48.9 °F 45 °F 29.7 in ENE 9.1 mph 20 mph 86.3% 0.02 in 0 W/m2
00:54 48.7 °F 45 °F 29.7 in ENE 8.1 mph 20 mph 87% 0.02 in 0 W/m2
00:59 48.6 °F 45 °F 29.7 in ENE 7.9 mph 15 mph 87.5% 0.02 in 0 W/m2
01:04 48.4 °F 45 °F 29.7 in East 7.8 mph 15 mph 88% 0.04 in 0 W/m2
01:09 48.4 °F 45 °F 29.7 in ENE 8.3 mph 13 mph 88% 0.04 in 0 W/m2
01:14 48.4 °F 45.3 °F 29.7 in ENE 6.8 mph 12 mph 88.7% 0.05 in 0 W/m2
01:19 48.4 °F 45.3 °F 29.7 in NE 8 mph 15 mph 89% 0.04 in 0 W/m2
01:24 48.6 °F 45.3 °F 29.7 in NE 9.8 mph 16.1 mph 89% 0.05 in 0 W/m2
01:29 48.6 °F 45.7 °F 29.7 in NE 7.8 mph 16 mph 89.7% 0.04 in 0 W/m2
01:34 48.7 °F 45.9 °F 29.7 in NE 8.8 mph 14 mph 90% 0.05 in 0 W/m2
01:39 48.7 °F 46 °F 29.7 in NE 8 mph 14 mph 90% 0.05 in 0 W/m2
01:44 48.7 °F 45.9 °F 29.7 in ENE 9 mph 16.1 mph 90% 0.04 in 0 W/m2
01:49 48.7 °F 46 °F 29.7 in ENE 9.1 mph 16.1 mph 90% 0.05 in 0 W/m2
01:54 48.7 °F 45.9 °F 29.7 in ENE 7.4 mph 16 mph 90% 0.04 in 0 W/m2
01:59 48.7 °F 46.2 °F 29.6 in ENE 8.5 mph 13 mph 90.8% 0.03 in 0 W/m2
02:04 48.7 °F 46.2 °F 29.6 in ENE 8.9 mph 13 mph 91% 0.04 in 0 W/m2
02:09 48.7 °F 46.2 °F 29.6 in ENE 9.8 mph 15 mph 91% 0.04 in 0 W/m2
02:14 48.7 °F 46.4 °F 29.6 in ENE 9.6 mph 16.1 mph 91% 0.04 in 0 W/m2
02:19 48.9 °F 46.4 °F 29.6 in ENE 10.9 mph 22 mph 91% 0.03 in 0 W/m2
02:24 48.9 °F 46.4 °F 29.6 in ENE 9.3 mph 22 mph 91% 0.03 in 0 W/m2
02:29 49.1 °F 46.6 °F 29.6 in NE 9.4 mph 21 mph 91% 0.02 in 0 W/m2
02:34 49.1 °F 46.6 °F 29.6 in ENE 10.8 mph 21 mph 91% 0.02 in 0 W/m2
02:39 49.3 °F 46.8 °F 29.6 in ENE 9.3 mph 15 mph 91% 0.02 in 0 W/m2
02:44 49.3 °F 46.8 °F 29.6 in NE 8.8 mph 14 mph 91% 0.02 in 0 W/m2
02:49 49.5 °F 46.9 °F 29.6 in NE 8.8 mph 14 mph 91% 0.02 in 0 W/m2
02:54 49.5 °F 46.9 °F 29.6 in NE 8.3 mph 14 mph 90.7% 0.01 in 0 W/m2
02:59 49.5 °F 46.8 °F 29.6 in NE 8.3 mph 15 mph 90% 0.01 in 0 W/m2
03:04 49.5 °F 46.8 °F 29.6 in NE 7.3 mph 15 mph 90% 0.01 in 0 W/m2
03:09 49.6 °F 46.9 °F 29.6 in NE 7.4 mph 15 mph 90.8% 0 in 0 W/m2
03:14 49.6 °F 47.1 °F 29.6 in NE 5.6 mph 13 mph 90.9% 0 in 0 W/m2
03:19 49.5 °F 46.9 °F 29.6 in NE 4.5 mph 9 mph 90.8% 0.01 in 0 W/m2
03:24 49.5 °F 46.9 °F 29.6 in NE 4.7 mph 9 mph 91% 0.02 in 0 W/m2
03:29 49.3 °F 47.1 °F 29.6 in NNE 4.5 mph 8 mph 91.7% 0.02 in 0 W/m2
03:34 49.3 °F 47.1 °F 29.6 in North 3.3 mph 7 mph 92% 0.02 in 0 W/m2
03:39 49.3 °F 47.1 °F 29.6 in North 3.9 mph 7 mph 92.2% 0.03 in 0 W/m2
03:44 49.1 °F 47.1 °F 29.6 in North 4 mph 7 mph 93% 0.03 in 0 W/m2
03:49 48.9 °F 46.9 °F 29.6 in North 4.7 mph 7 mph 93% 0.04 in 0 W/m2
03:54 48.7 °F 46.9 °F 29.6 in North 3.6 mph 7 mph 93% 0.04 in 0 W/m2
03:59 48.7 °F 46.8 °F 29.6 in North 3.5 mph 6 mph 93% 0.05 in 0 W/m2
04:04 48.7 °F 46.8 °F 29.6 in NNW 3.1 mph 7 mph 93% 0.05 in 0 W/m2
04:09 48.7 °F 47.1 °F 29.6 in North 4 mph 7 mph 93.8% 0.05 in 0 W/m2
04:14 48.7 °F 47.1 °F 29.6 in North 4 mph 7 mph 93.9% 0.05 in 0 W/m2
04:19 48.7 °F 46.9 °F 29.6 in NNW 2.9 mph 7 mph 93.7% 0.05 in 0 W/m2
04:24 48.6 °F 47.1 °F 29.6 in North 3.3 mph 7 mph 94% 0.05 in 0 W/m2
04:29 48.6 °F 46.9 °F 29.6 in North 3 mph 6 mph 94% 0.04 in 0 W/m2
04:34 48.6 °F 46.9 °F 29.6 in NNW 3 mph 6 mph 94% 0.04 in 0 W/m2
04:39 48.6 °F 46.9 °F 29.6 in NNW 3 mph 6 mph 94% 0.03 in 0 W/m2
04:44 48.6 °F 46.9 °F 29.6 in NNW 3.5 mph 6 mph 94% 0.03 in 0 W/m2
04:49 48.6 °F 46.9 °F 29.6 in NNW 2 mph 6 mph 94% 0.03 in 0 W/m2
04:54 48.6 °F 46.9 °F 29.6 in NNW 2.3 mph 5 mph 94% 0.02 in 0 W/m2
04:59 48.6 °F 46.9 °F 29.6 in NNW 3.2 mph 5 mph 94% 0.02 in 0 W/m2
05:04 48.7 °F 47.1 °F 29.6 in NNW 3.4 mph 7 mph 94% 0.02 in 0 W/m2
05:09 48.7 °F 46.9 °F 29.6 in NW 2.7 mph 7 mph 93.3% 0.02 in 0 W/m2
05:14 48.7 °F 46.8 °F 29.6 in NNW 2.9 mph 6 mph 93.1% 0.02 in 0 W/m2
05:19 48.7 °F 47.1 °F 29.6 in NW 2.7 mph 5 mph 94% 0.02 in 0 W/m2
05:24 48.7 °F 47.1 °F 29.6 in NNW 2.4 mph 5 mph 94% 0.02 in 0 W/m2
05:29 48.9 °F 47.1 °F 29.6 in NNW 2.3 mph 5 mph 94% 0.02 in 0 W/m2
05:34 48.9 °F 47.3 °F 29.6 in NNW 2.2 mph 5 mph 94% 0.02 in 0 W/m2
05:39 48.9 °F 47.3 °F 29.6 in NNW 1.9 mph 5 mph 94% 0.02 in 0 W/m2
05:44 48.9 °F 47.3 °F 29.6 in NNW 1.8 mph 5 mph 94% 0.02 in 0 W/m2
05:49 49.1 °F 47.3 °F 29.6 in NNW 1.9 mph 4 mph 94% 0.01 in 0 W/m2
05:54 49.1 °F 47.3 °F 29.5 in NNW 1.9 mph 4 mph 94% 0.01 in 0 W/m2
05:59 49.1 °F 47.5 °F 29.5 in NNW 2.1 mph 3.5 mph 94% 0.01 in 0 W/m2
06:04 49.3 °F 47.5 °F 29.5 in NNW 2.2 mph 4 mph 93.7% 0.01 in 0 W/m2
06:09 49.3 °F 47.5 °F 29.5 in NNW 2.5 mph 4 mph 93.5% 0.01 in 0 W/m2
06:14 49.3 °F 47.7 °F 29.5 in NNW 2.8 mph 7 mph 94% 0.01 in 0 W/m2
06:19 49.3 °F 47.5 °F 29.5 in NW 3.8 mph 7 mph 93.7% 0.01 in 0 W/m2
06:24 49.3 °F 47.5 °F 29.5 in NW 2.4 mph 7 mph 93.4% 0 in 0 W/m2
06:29 49.5 °F 47.7 °F 29.5 in NW 3 mph 6 mph 93.7% 0 in 0 W/m2
06:34 49.3 °F 47.7 °F 29.5 in NW 3.8 mph 6 mph 93.8% 0 in 0 W/m2
06:39 49.5 °F 47.7 °F 29.5 in WNW 2.9 mph 6 mph 94% 0 in 0 W/m2
06:44 49.5 °F 47.7 °F 29.5 in WNW 4 mph 6 mph 94% 0.01 in 0 W/m2
06:49 49.5 °F 47.7 °F 29.5 in WNW 4 mph 7 mph 94% 0.01 in 0 W/m2
06:54 49.5 °F 47.8 °F 29.5 in WNW 5 mph 9 mph 94% 0.01 in 0 W/m2
06:59 49.5 °F 47.8 °F 29.5 in WNW 3.5 mph 9.2 mph 94% 0.01 in 0 W/m2
07:04 49.5 °F 47.8 °F 29.5 in WNW 3.2 mph 9 mph 94% 0.01 in 0 W/m2
07:09 49.6 °F 47.8 °F 29.5 in WNW 2.6 mph 6 mph 94% 0.01 in 5 W/m2
07:14 49.5 °F 47.8 °F 29.5 in WNW 3.7 mph 9 mph 94% 0.01 in 5 W/m2
07:19 49.5 °F 47.8 °F 29.5 in WNW 5.3 mph 9.2 mph 94% 0.01 in 7 W/m2
07:24 49.5 °F 47.8 °F 29.5 in WNW 5.9 mph 10.4 mph 94% 0.01 in 7 W/m2
07:29 49.5 °F 47.7 °F 29.5 in WNW 6.3 mph 10.4 mph 94% 0.01 in 7 W/m2
07:34 49.3 °F 47.7 °F 29.5 in WNW 6.6 mph 10.4 mph 94% 0.02 in 12 W/m2
07:39 49.3 °F 47.7 °F 29.5 in WNW 4.3 mph 10 mph 94% 0.02 in 12 W/m2
07:44 49.3 °F 47.7 °F 29.5 in West 4.6 mph 8.1 mph 94% 0.02 in 18 W/m2
07:49 49.3 °F 47.5 °F 29.5 in WNW 5.5 mph 11 mph 94% 0.02 in 18 W/m2
07:54 49.1 °F 47.5 °F 29.5 in West 6.2 mph 12 mph 94% 0.02 in 16 W/m2
07:59 49.1 °F 47.3 °F 29.5 in WNW 5 mph 12 mph 94% 0.02 in 18 W/m2
08:04 49.1 °F 47.3 °F 29.5 in WNW 5.5 mph 9.2 mph 94% 0.03 in 18 W/m2
08:09 49.1 °F 47.3 °F 29.5 in WNW 6 mph 9 mph 94% 0.03 in 23 W/m2
08:14 49.1 °F 47.5 °F 29.5 in WNW 5.2 mph 8.1 mph 94% 0.03 in 23 W/m2
08:19 49.1 °F 47.5 °F 29.5 in WNW 5.3 mph 8.1 mph 94% 0.03 in 18 W/m2
08:24 49.1 °F 47.5 °F 29.5 in WNW 5.7 mph 9.2 mph 94% 0.03 in 18 W/m2
08:29 49.3 °F 47.5 °F 29.5 in WNW 5.8 mph 9.2 mph 94% 0.03 in 18 W/m2
08:34 49.3 °F 47.5 °F 29.5 in WNW 5.4 mph 9 mph 94% 0.04 in 16 W/m2
08:39 49.1 °F 47.5 °F 29.5 in WNW 6.2 mph 10.4 mph 94% 0.03 in 21 W/m2
08:44 49.1 °F 47.5 °F 29.5 in WNW 6.7 mph 10 mph 94% 0.03 in 25 W/m2
08:49 49.1 °F 47.5 °F 29.5 in WNW 5.3 mph 10.4 mph 94% 0.03 in 30 W/m2
08:54 49.1 °F 47.5 °F 29.5 in WNW 7.1 mph 12 mph 94% 0.02 in 39 W/m2
08:59 49.1 °F 47.3 °F 29.5 in WNW 8.3 mph 12 mph 94% 0.02 in 44 W/m2
09:04 49.1 °F 47.5 °F 29.5 in WNW 6.9 mph 12 mph 94% 0.02 in 47 W/m2
09:09 49.1 °F 47.5 °F 29.5 in WNW 7.7 mph 13 mph 94% 0.01 in 47 W/m2
09:14 49.1 °F 47.5 °F 29.5 in WNW 7.6 mph 13 mph 94% 0.02 in 42 W/m2
09:19 49.3 °F 47.5 °F 29.5 in WNW 6.8 mph 12 mph 94% 0.02 in 40 W/m2
09:24 49.3 °F 47.5 °F 29.5 in WNW 8 mph 12 mph 94% 0.02 in 40 W/m2
09:29 49.3 °F 47.5 °F 29.5 in WNW 7.8 mph 12 mph 94% 0.02 in 39 W/m2
09:34 49.3 °F 47.5 °F 29.5 in WNW 8.9 mph 13 mph 94% 0.02 in 37 W/m2
09:39 49.3 °F 47.5 °F 29.5 in WNW 8 mph 13 mph 94% 0.02 in 44 W/m2
09:44 49.3 °F 47.5 °F 29.5 in WNW 8.4 mph 13 mph 94% 0.02 in 42 W/m2
09:49 49.3 °F 47.7 °F 29.5 in WNW 7 mph 13 mph 94% 0.02 in 42 W/m2
09:54 49.3 °F 47.7 °F 29.5 in WNW 7.4 mph 12 mph 94% 0.02 in 46 W/m2
09:59 49.3 °F 47.7 °F 29.5 in WNW 7.7 mph 13 mph 94% 0.03 in 54 W/m2
10:04 49.3 °F 47.7 °F 29.5 in WNW 7.6 mph 13 mph 94% 0.03 in 54 W/m2
10:09 49.3 °F 47.7 °F 29.5 in WNW 8.5 mph 14 mph 94% 0.03 in 69 W/m2
10:14 49.5 °F 47.8 °F 29.5 in WNW 7.1 mph 12.7 mph 94% 0.04 in 69 W/m2
10:19 49.6 °F 47.8 °F 29.5 in WNW 6.1 mph 13 mph 94% 0.03 in 95 W/m2
10:24 49.8 °F 48.2 °F 29.5 in WNW 5.5 mph 9.2 mph 94% 0.03 in 121 W/m2
10:29 50 °F 48.4 °F 29.5 in WNW 8.1 mph 15 mph 94% 0.03 in 141 W/m2
10:34 50.2 °F 48.4 °F 29.5 in WNW 8.1 mph 15 mph 94% 0.03 in 156 W/m2
10:39 50.4 °F 48.6 °F 29.5 in NW 6.6 mph 13 mph 93.3% 0.03 in 162 W/m2
10:44 50.7 °F 48.7 °F 29.5 in WNW 5.2 mph 13 mph 93% 0.02 in 156 W/m2
10:49 50.7 °F 48.7 °F 29.5 in WNW 6 mph 10.4 mph 93% 0.02 in 153 W/m2
10:54 50.9 °F 48.9 °F 29.5 in WNW 6.3 mph 10 mph 93% 0.03 in 127 W/m2
10:59 50.9 °F 48.9 °F 29.5 in WNW 6.5 mph 9.2 mph 93% 0.03 in 123 W/m2
11:04 51.1 °F 49.1 °F 29.5 in WNW 7.3 mph 10.4 mph 93% 0.02 in 134 W/m2
11:09 51.1 °F 49.1 °F 29.5 in WNW 6.2 mph 10.4 mph 93% 0.02 in 137 W/m2
11:14 51.3 °F 49.3 °F 29.5 in WNW 6 mph 10.4 mph 93% 0.02 in 142 W/m2
11:19 51.4 °F 49.5 °F 29.5 in WNW 6.8 mph 11.5 mph 93% 0.02 in 144 W/m2
11:24 51.6 °F 49.5 °F 29.6 in WNW 7.7 mph 12 mph 92.2% 0.02 in 146 W/m2
11:29 51.8 °F 49.6 °F 29.6 in WNW 4.9 mph 12 mph 92.6% 0.02 in 156 W/m2
11:34 51.8 °F 49.6 °F 29.6 in West 5.7 mph 10.4 mph 92.5% 0.02 in 156 W/m2
11:39 51.8 °F 49.6 °F 29.6 in West 5.4 mph 10 mph 92.2% 0.02 in 137 W/m2
11:44 52 °F 49.6 °F 29.6 in WNW 6.6 mph 12 mph 92% 0.02 in 172 W/m2
11:49 52 °F 49.6 °F 29.6 in WNW 8.4 mph 12 mph 91.4% 0.02 in 193 W/m2
11:54 52.3 °F 49.8 °F 29.6 in WNW 6.6 mph 12 mph 91.2% 0.02 in 209 W/m2
11:59 52.5 °F 50 °F 29.6 in WNW 6.2 mph 10 mph 91.1% 0.02 in 220 W/m2
12:04 52.9 °F 50.4 °F 29.6 in WNW 5.9 mph 10.4 mph 91% 0.02 in 237 W/m2
12:09 53.1 °F 50.4 °F 29.6 in WNW 6.2 mph 10.4 mph 91% 0.02 in 237 W/m2
12:14 53.1 °F 50.4 °F 29.6 in West 5.8 mph 9.2 mph 90.8% 0.02 in 229 W/m2
12:19 53.2 °F 50.5 °F 29.6 in West 5.2 mph 9.2 mph 91% 0.02 in 207 W/m2
12:24 53.4 °F 50.9 °F 29.6 in West 3.8 mph 9 mph 91% 0.02 in 221 W/m2
12:29 53.6 °F 50.9 °F 29.6 in WNW 5.8 mph 10.4 mph 90.7% 0.02 in 221 W/m2
12:34 53.6 °F 50.5 °F 29.6 in West 5.7 mph 10 mph 90% 0.02 in 202 W/m2
12:39 53.6 °F 50.7 °F 29.6 in West 5.2 mph 9 mph 90% 0.01 in 172 W/m2
12:44 53.8 °F 51.1 °F 29.6 in West 4.4 mph 8.1 mph 90.7% 0.01 in 181 W/m2
12:49 53.8 °F 51.1 °F 29.6 in WNW 3.7 mph 8 mph 90.8% 0.01 in 179 W/m2
12:54 53.8 °F 51.3 °F 29.6 in West 4.2 mph 8.1 mph 91% 0.02 in 227 W/m2
12:59 54.1 °F 51.4 °F 29.6 in West 4.4 mph 8 mph 91% 0.02 in 251 W/m2
13:04 54.3 °F 51.8 °F 29.6 in West 4.2 mph 7 mph 91% 0.02 in 251 W/m2
13:09 54.5 °F 51.8 °F 29.6 in West 3.7 mph 7 mph 90.8% 0.02 in 269 W/m2
13:14 54.5 °F 51.8 °F 29.6 in West 2.9 mph 7 mph 90.2% 0.02 in 315 W/m2
13:19 54.9 °F 52 °F 29.6 in WNW 4.6 mph 8 mph 89.8% 0.01 in 316 W/m2
13:22 54.9 °F 51.6 °F 29.6 in West 6.2 mph 8.1 mph 88.7% 0.01 in 308 W/m2
13:29 55 °F 51.8 °F 29.6 in WNW 4.6 mph 8 mph 88.8% 0.01 in 309 W/m2
13:34 55.2 °F 51.8 °F 29.6 in WNW 4.8 mph 8.1 mph 88.6% 0.01 in 290 W/m2
13:39 55.2 °F 51.8 °F 29.6 in West 5 mph 8 mph 88.4% 0.01 in 295 W/m2
13:44 55.4 °F 52.2 °F 29.6 in West 3 mph 7 mph 88.7% 0.01 in 295 W/m2
13:49 55.4 °F 52 °F 29.6 in West 4.3 mph 6.9 mph 88.3% 0.01 in 278 W/m2
13:54 55.6 °F 52.3 °F 29.6 in West 3.8 mph 7 mph 88.9% 0.01 in 269 W/m2
13:59 55.6 °F 52.3 °F 29.6 in West 4 mph 7 mph 88.6% 0 in 279 W/m2
14:04 55.6 °F 52 °F 29.6 in WNW 3.7 mph 6 mph 87.7% 0 in 278 W/m2
14:09 55.8 °F 52.2 °F 29.6 in West 2.7 mph 6 mph 87.7% 0 in 272 W/m2
14:14 55.8 °F 52 °F 29.6 in WNW 2 mph 5 mph 87% 0 in 304 W/m2
14:19 56.1 °F 52.3 °F 29.6 in WNW 2.6 mph 4 mph 87% 0 in 315 W/m2
14:24 56.1 °F 52 °F 29.6 in WNW 2.3 mph 5 mph 85.8% 0 in 327 W/m2
14:29 56.7 °F 52.9 °F 29.6 in NW 1.2 mph 5 mph 87.4% 0 in 332 W/m2
14:34 56.8 °F 53.1 °F 29.6 in NW 1.4 mph 3.5 mph 86.9% 0 in 325 W/m2
14:39 57 °F 52.9 °F 29.6 in WNW 2.1 mph 4 mph 86.1% 0 in 278 W/m2
14:44 57 °F 52.5 °F 29.6 in NW 1.7 mph 4.6 mph 85.2% 0.01 in 265 W/m2
14:49 56.5 °F 51.6 °F 29.6 in North 1.1 mph 5 mph 83.6% 0.01 in 239 W/m2
14:54 56.7 °F 52.2 °F 29.6 in ENE 1.1 mph 3.5 mph 84.8% 0.01 in 213 W/m2
14:59 56.8 °F 52.5 °F 29.6 in North 1.2 mph 3.5 mph 85.1% 0.01 in 214 W/m2
15:04 56.8 °F 52.2 °F 29.6 in NNW 1.4 mph 3.5 mph 83.9% 0.01 in 207 W/m2
15:09 56.8 °F 51.8 °F 29.6 in ENE 0.4 mph 3 mph 83.3% 0.01 in 176 W/m2
15:14 56.8 °F 51.8 °F 29.6 in SSW 0.9 mph 3.5 mph 83.6% 0.01 in 192 W/m2
15:19 56.8 °F 52 °F 29.6 in South 0.7 mph 3 mph 83.7% 0.01 in 229 W/m2
15:24 57 °F 52.3 °F 29.6 in SSW 1.2 mph 2.3 mph 84% 0.01 in 250 W/m2
15:29 57.2 °F 52.2 °F 29.6 in SSW 1 mph 2.3 mph 83.4% 0.01 in 271 W/m2
15:34 57.4 °F 52.5 °F 29.6 in SW 1.6 mph 4 mph 83.9% 0.01 in 315 W/m2
15:39 57.6 °F 52.7 °F 29.6 in WSW 1.7 mph 4 mph 83.6% 0.01 in 345 W/m2
15:44 57.7 °F 52.5 °F 29.6 in WSW 2.9 mph 5 mph 82.6% 0.01 in 343 W/m2
15:49 57.7 °F 52.2 °F 29.6 in West 2.4 mph 5 mph 81.8% 0 in 311 W/m2
15:54 57.7 °F 52.2 °F 29.6 in West 1.4 mph 3.5 mph 81.9% 0 in 274 W/m2
15:59 57.7 °F 52.3 °F 29.6 in SW 2.1 mph 5 mph 81.9% 0 in 214 W/m2
16:04 57.7 °F 52 °F 29.6 in WSW 2.2 mph 5 mph 81% 0 in 227 W/m2
16:09 57.7 °F 52.2 °F 29.6 in West 0.9 mph 3.5 mph 81.3% 0 in 239 W/m2
16:14 57.9 °F 52.3 °F 29.6 in SW 0.1 mph 3 mph 81.8% 0 in 262 W/m2
16:19 58.1 °F 52.3 °F 29.6 in WSW 0.9 mph 3.5 mph 81.2% 0 in 271 W/m2
16:24 57.9 °F 52.3 °F 29.6 in SW 1.4 mph 3.5 mph 81.2% 0 in 264 W/m2
16:29 58.5 °F 52.5 °F 29.6 in SW 2.3 mph 4 mph 80.8% 0 in 253 W/m2
16:39 58.3 °F 52 °F 29.6 in SSW 1.1 mph 3.5 mph 79.3% 0 in 250 W/m2
16:44 58.5 °F 52.3 °F 29.6 in SSW 1.7 mph 3.5 mph 80.2% 0 in 246 W/m2
16:49 58.5 °F 52.2 °F 29.6 in SSW 0.6 mph 3 mph 79.4% 0 in 236 W/m2
16:54 58.6 °F 52.3 °F 29.6 in SSW 1.5 mph 3.5 mph 79.8% 0 in 232 W/m2
16:59 58.6 °F 52.2 °F 29.6 in SW 1.6 mph 4 mph 79.4% 0 in 225 W/m2
17:04 58.5 °F 52.2 °F 29.6 in WSW 2.7 mph 5 mph 79.8% 0 in 216 W/m2
17:09 58.5 °F 52.2 °F 29.6 in WSW 2.9 mph 5 mph 79.6% 0 in 199 W/m2
17:14 58.6 °F 52.3 °F 29.6 in West 2.2 mph 5 mph 79.5% 0 in 186 W/m2
17:19 58.5 °F 52.3 °F 29.6 in WSW 2.6 mph 5 mph 79.8% 0 in 169 W/m2
17:24 58.5 °F 52.5 °F 29.6 in WSW 2.2 mph 5 mph 80.4% 0 in 151 W/m2
17:29 58.6 °F 52.7 °F 29.6 in SW 2.7 mph 4 mph 80.8% 0 in 139 W/m2
17:34 58.5 °F 52.7 °F 29.6 in SW 1.8 mph 4 mph 81.3% 0 in 132 W/m2
17:39 58.5 °F 53.1 °F 29.6 in WSW 2.4 mph 5 mph 81.8% 0 in 128 W/m2
17:44 58.5 °F 52.9 °F 29.6 in WSW 3.2 mph 5 mph 81.4% 0 in 127 W/m2
17:49 58.5 °F 52.7 °F 29.6 in SW 3.4 mph 6 mph 81.3% 0 in 127 W/m2
17:54 58.3 °F 52.5 °F 29.6 in SW 3.2 mph 6 mph 81.2% 0 in 127 W/m2
17:59 58.5 °F 52.9 °F 29.6 in SW 2.7 mph 6 mph 82% 0 in 125 W/m2
18:04 58.5 °F 52.9 °F 29.6 in WSW 2.7 mph 5 mph 82% 0 in 123 W/m2
18:09 58.5 °F 52.9 °F 29.6 in SSW 2.4 mph 5 mph 81.8% 0 in 120 W/m2
18:14 58.5 °F 52.9 °F 29.6 in SW 2.9 mph 5 mph 82% 0 in 120 W/m2
18:19 58.3 °F 52.9 °F 29.6 in SW 2.6 mph 5 mph 82% 0 in 118 W/m2
18:24 58.3 °F 52.9 °F 29.6 in SW 2.9 mph 5 mph 82.1% 0 in 114 W/m2
18:29 58.3 °F 52.5 °F 29.6 in WSW 3.9 mph 5 mph 81.3% 0 in 105 W/m2
18:34 58.1 °F 52.5 °F 29.6 in SW 3 mph 6 mph 81.9% 0 in 100 W/m2
18:39 58.1 °F 52.9 °F 29.6 in SW 2.7 mph 6 mph 82.9% 0 in 84 W/m2
18:44 57.9 °F 53.1 °F 29.6 in SW 2.5 mph 6 mph 83.5% 0 in 77 W/m2
18:49 57.9 °F 52.9 °F 29.6 in SSW 3.7 mph 6 mph 83.6% 0 in 76 W/m2
18:54 57.7 °F 52.9 °F 29.6 in SW 2.5 mph 6 mph 83.6% 0 in 77 W/m2
18:59 57.7 °F 52.9 °F 29.6 in SSW 2.7 mph 6 mph 83.9% 0 in 74 W/m2
19:04 57.7 °F 52.9 °F 29.6 in SSW 3.7 mph 5 mph 84% 0 in 72 W/m2
19:09 57.6 °F 52.7 °F 29.6 in SSW 4.4 mph 6 mph 83.5% 0 in 69 W/m2
19:14 57.6 °F 52.7 °F 29.6 in SW 3.5 mph 6 mph 84% 0 in 62 W/m2
19:19 57.6 °F 52.7 °F 29.6 in SSW 3.5 mph 6 mph 84% 0 in 58 W/m2
19:24 57.2 °F 52.5 °F 29.6 in SSW 3.7 mph 6 mph 84% 0 in 51 W/m2
19:29 57.2 °F 52.3 °F 29.6 in SSW 3.5 mph 6 mph 84% 0 in 44 W/m2
19:34 57 °F 52.3 °F 29.6 in SSW 3.1 mph 5.8 mph 84% 0 in 37 W/m2
19:39 57 °F 52.3 °F 29.6 in SSW 2.7 mph 6 mph 84.7% 0 in 30 W/m2
19:44 56.8 °F 52.3 °F 29.6 in SSW 2.9 mph 4 mph 85% 0 in 25 W/m2
19:49 56.7 °F 52.3 °F 29.6 in SW 2.8 mph 5 mph 85.4% 0 in 21 W/m2
19:54 56.5 °F 52.5 °F 29.6 in SSW 3 mph 5 mph 86% 0 in 19 W/m2
19:59 56.5 °F 52.3 °F 29.6 in SW 2.7 mph 5 mph 86% 0 in 16 W/m2
20:04 56.3 °F 52.3 °F 29.6 in SW 1.9 mph 3.5 mph 86.7% 0 in 9 W/m2
20:09 56.1 °F 52.3 °F 29.6 in SW 2.3 mph 3.5 mph 87% 0 in 5 W/m2
20:14 55.9 °F 52.2 °F 29.6 in SW 1.5 mph 3.5 mph 87% 0 in 0 W/m2
20:19 55.8 °F 52 °F 29.6 in SW 1.4 mph 3.5 mph 87% 0 in 0 W/m2
20:24 55.6 °F 51.8 °F 29.6 in SW 2 mph 3.5 mph 87% 0 in 0 W/m2
20:29 55.6 °F 51.8 °F 29.6 in SW 1.7 mph 3.5 mph 87% 0 in 0 W/m2
20:34 55.6 °F 51.6 °F 29.6 in SW 2.2 mph 4 mph 87% 0 in 0 W/m2
20:39 55.4 °F 51.6 °F 29.6 in SSW 1.9 mph 4 mph 87% 0 in 0 W/m2
20:44 55.2 °F 51.4 °F 29.6 in SSW 1.6 mph 3.5 mph 87.1% 0 in 0 W/m2
20:49 55 °F 51.6 °F 29.6 in SSW 1 mph 3.5 mph 88% 0 in 0 W/m2
20:54 54.7 °F 51.4 °F 29.6 in SSW 0.5 mph 3 mph 88.8% 0 in 0 W/m2
20:59 54.5 °F 51.4 °F 29.6 in Calm   2 mph 89.5% 0 in 0 W/m2
21:04 54.3 °F 51.4 °F 29.6 in Calm     90% 0 in 0 W/m2
21:09 54.3 °F 51.4 °F 29.6 in Calm     90.5% 0 in 0 W/m2
21:14 54.1 °F 51.4 °F 29.6 in Calm     91% 0 in 0 W/m2
21:19 54 °F 51.4 °F 29.7 in Calm     91% 0 in 0 W/m2
21:24 54 °F 51.4 °F 29.7 in Calm     91% 0 in 0 W/m2
21:29 53.8 °F 51.3 °F 29.7 in Calm     91% 0 in 0 W/m2
21:34 53.6 °F 51.3 °F 29.7 in Calm     91.7% 0 in 0 W/m2
21:39 53.4 °F 51.3 °F 29.7 in Calm     92% 0 in 0 W/m2
21:44 53.4 °F 51.1 °F 29.7 in Calm     92% 0 in 0 W/m2
21:49 53.4 °F 51.1 °F 29.7 in Calm     92% 0 in 0 W/m2
21:54 53.2 °F 51.1 °F 29.7 in Calm     92% 0 in 0 W/m2
21:59 53.1 °F 50.9 °F 29.7 in Calm     92% 0 in 0 W/m2
22:04 53.1 °F 50.9 °F 29.7 in Calm     92.7% 0 in 0 W/m2
22:09 52.9 °F 50.9 °F 29.7 in Calm     93% 0 in 0 W/m2
22:14 52.5 °F 50.5 °F 29.7 in Calm     93% 0 in 0 W/m2
22:19 52.3 °F 50.4 °F 29.7 in Calm     93% 0 in 0 W/m2
22:24 52.2 °F 50.2 °F 29.7 in Calm     93% 0 in 0 W/m2
22:29 52 °F 50 °F 29.7 in Calm     93.6% 0 in 0 W/m2
22:34 51.8 °F 50.2 °F 29.7 in Calm     94% 0 in 0 W/m2
22:39 51.8 °F 50 °F 29.7 in Calm     94% 0 in 0 W/m2
22:44 51.4 °F 49.8 °F 29.7 in SSE 0.5 mph 2.3 mph 94% 0 in 0 W/m2
22:49 51.4 °F 49.8 °F 29.7 in SSE 1.5 mph 3.5 mph 94% 0 in 0 W/m2
22:54 51.6 °F 50 °F 29.7 in SE 1.6 mph 3 mph 94% 0 in 0 W/m2
22:59 51.8 °F 50.2 °F 29.7 in SE 1.4 mph 2.3 mph 94% 0 in 0 W/m2
23:04 52 °F 50.4 °F 29.7 in SE 2.1 mph 3.5 mph 94% 0 in 0 W/m2
23:09 52 °F 50.4 °F 29.7 in ESE 3 mph 4 mph 94% 0 in 0 W/m2
23:14 52 °F 50.2 °F 29.7 in ESE 2.5 mph 4 mph 94% 0 in 0 W/m2
23:19 52 °F 50.4 °F 29.7 in ESE 2.3 mph 3.5 mph 94.1% 0 in 0 W/m2
23:24 52 °F 50.4 °F 29.7 in ESE 1.7 mph 3.5 mph 94.1% 0 in 0 W/m2
23:29 52.2 °F 50.7 °F 29.7 in ESE 0.4 mph 3 mph 94.9% 0 in 0 W/m2
23:34 52.3 °F 50.9 °F 29.7 in Calm   1 mph 95% 0 in 0 W/m2
23:39 52.5 °F 51.1 °F 29.7 in Calm     95% 0 in 0 W/m2
23:44 52.5 °F 50.9 °F 29.7 in Calm     94.2% 0 in 0 W/m2
23:49 52.7 °F 50.9 °F 29.7 in ESE 0.1 mph 1 mph 94% 0 in 0 W/m2
23:54 52.7 °F 50.9 °F 29.7 in ESE 1.3 mph 2.3 mph 94% 0 in 0 W/m2
23:59 52.7 °F 50.9 °F 29.7 in ESE 1.7 mph 3.5 mph 94% 0 in 0 W/m2
Stazione Meteorologica MeteoMincio Rivalta s/M (MN)
Con i complimenti di Weather Underground - 4 mb


GLOSSARIO METEOROLOGICO
Vento
Il vento è prodotto dalla differenza di pressione tra due zone e serve per ristabilirne l'equilibrio. Dalla zona con pressione più alta l'aria affluisce a quella con pressione inferiore. Più le isobare (linee di ugual pressione) sono ravvicinate e più la forza del vento sarà intensa. Il vento è classificato dalla scala Beaufort. E' definito dalla sua direzione e dalla sua forza o, più esattamente, dalla sua velocità. Vento, pressione atmosferica e temperatura stanno in rapporto funzionale con l'andamento del tempo.

Do NOT follow this link or you will be banned from the site!